createdAt,value
2018-10-06T00:01:41.401Z,10.90
2018-10-06T00:04:09.909Z,10.80
2018-10-06T00:06:38.485Z,10.80
2018-10-06T00:09:07.273Z,10.80
2018-10-06T00:11:36.136Z,10.80
2018-10-06T00:14:05.044Z,10.80
2018-10-06T00:16:33.494Z,10.80
2018-10-06T00:19:01.924Z,10.70
2018-10-06T00:21:30.375Z,10.70
2018-10-06T00:23:58.808Z,10.70
2018-10-06T00:26:27.257Z,10.70
2018-10-06T00:28:56.121Z,10.60
2018-10-06T00:31:24.605Z,10.60
2018-10-06T00:33:53.140Z,10.60
2018-10-06T00:36:22.058Z,10.60
2018-10-06T00:38:50.500Z,10.60
2018-10-06T00:41:18.953Z,10.50
2018-10-06T00:43:47.406Z,10.50
2018-10-06T00:46:15.876Z,10.50
2018-10-06T00:48:44.337Z,10.50
2018-10-06T00:51:12.943Z,10.40
2018-10-06T00:53:41.377Z,10.40
2018-10-06T00:56:09.858Z,10.40
2018-10-06T00:58:38.344Z,10.40
2018-10-06T01:01:06.800Z,10.30
2018-10-06T01:03:35.243Z,10.30
2018-10-06T01:06:03.686Z,10.30
2018-10-06T01:08:32.144Z,10.30
2018-10-06T01:11:00.664Z,10.30
2018-10-06T01:13:29.116Z,10.20
2018-10-06T01:15:57.597Z,10.20
2018-10-06T01:18:26.043Z,10.20
2018-10-06T01:20:54.477Z,10.20
2018-10-06T01:23:22.927Z,10.10
2018-10-06T01:25:51.375Z,10.10
2018-10-06T01:28:19.825Z,10.10
2018-10-06T01:30:48.261Z,10.00
2018-10-06T01:33:16.724Z,10.10
2018-10-06T01:35:45.396Z,10.00
2018-10-06T01:38:13.857Z,10.00
2018-10-06T01:40:42.291Z,10.00
2018-10-06T01:43:10.728Z,10.00
2018-10-06T01:45:39.202Z,10.00
2018-10-06T01:48:07.649Z,9.90
2018-10-06T01:50:36.084Z,9.90
2018-10-06T01:53:04.517Z,9.90
2018-10-06T01:55:32.943Z,9.90
2018-10-06T01:58:01.385Z,9.90
2018-10-06T02:00:29.842Z,9.80
2018-10-06T02:02:58.296Z,9.80
2018-10-06T02:05:26.734Z,9.80
2018-10-06T02:07:55.145Z,9.80
2018-10-06T02:10:23.583Z,9.80
2018-10-06T02:12:52.108Z,9.70
2018-10-06T02:15:20.564Z,9.80
2018-10-06T02:17:49.024Z,9.70
2018-10-06T02:20:17.477Z,9.70
2018-10-06T02:22:45.957Z,9.70
2018-10-06T02:25:14.420Z,9.70
2018-10-06T02:27:42.833Z,9.70
2018-10-06T02:30:11.747Z,9.60
2018-10-06T02:32:40.085Z,9.60
2018-10-06T02:35:08.556Z,9.60
2018-10-06T02:37:37.011Z,9.60
2018-10-06T02:40:05.445Z,9.50
2018-10-06T02:42:33.864Z,9.50
2018-10-06T02:45:02.307Z,9.50
2018-10-06T02:47:30.733Z,9.50
2018-10-06T02:50:00.118Z,9.40
2018-10-06T02:52:28.555Z,9.40
2018-10-06T02:54:56.988Z,9.40
2018-10-06T02:57:25.496Z,9.40
2018-10-06T02:59:54.473Z,9.30
2018-10-06T03:02:23.033Z,9.30
2018-10-06T03:04:51.836Z,9.30
2018-10-06T03:07:20.278Z,9.30
2018-10-06T03:09:48.717Z,9.30
2018-10-06T03:12:17.171Z,9.30
2018-10-06T03:14:45.612Z,9.30
2018-10-06T03:17:14.064Z,9.30
2018-10-06T03:19:42.532Z,9.30
2018-10-06T03:22:10.990Z,9.30
2018-10-06T03:24:39.434Z,9.30
2018-10-06T03:27:07.874Z,9.30
2018-10-06T03:29:36.756Z,9.30
2018-10-06T03:32:05.269Z,9.30
2018-10-06T03:34:33.720Z,9.30
2018-10-06T03:37:02.158Z,9.30
2018-10-06T03:39:30.607Z,9.30
2018-10-06T03:41:59.064Z,9.30
2018-10-06T03:44:27.505Z,9.30
2018-10-06T03:46:55.974Z,9.30
2018-10-06T03:49:24.427Z,9.30
2018-10-06T03:51:52.860Z,9.30
2018-10-06T03:54:22.845Z,9.30
2018-10-06T03:58:15.758Z,9.30
2018-10-06T04:00:44.444Z,9.30
2018-10-06T04:03:12.887Z,9.20
2018-10-06T04:05:41.436Z,9.20
2018-10-06T04:08:09.893Z,9.20
2018-10-06T04:10:38.336Z,9.20
2018-10-06T04:13:07.378Z,9.20
2018-10-06T04:15:36.316Z,9.20
2018-10-06T04:18:04.838Z,9.10
2018-10-06T04:20:33.276Z,9.10
2018-10-06T04:23:01.722Z,9.10
2018-10-06T04:25:30.149Z,9.10
2018-10-06T04:27:58.703Z,9.10
2018-10-06T04:30:27.133Z,9.10
2018-10-06T04:32:55.572Z,9.10
2018-10-06T04:35:24.001Z,9.10
2018-10-06T04:37:52.481Z,9.00
2018-10-06T04:40:21.227Z,9.00
2018-10-06T04:42:49.766Z,9.00
2018-10-06T04:45:18.194Z,9.00
2018-10-06T04:47:46.779Z,9.00
2018-10-06T04:50:15.244Z,9.00
2018-10-06T04:52:43.750Z,9.00
2018-10-06T04:55:12.188Z,9.00
2018-10-06T04:57:40.658Z,9.00
2018-10-06T05:00:09.103Z,9.00
2018-10-06T05:02:37.536Z,9.00
2018-10-06T05:05:05.988Z,9.00
2018-10-06T05:07:34.410Z,9.00
2018-10-06T05:10:02.866Z,9.00
2018-10-06T05:12:31.313Z,9.00
2018-10-06T05:15:02.374Z,9.00
2018-10-06T05:17:32.141Z,9.00
2018-10-06T05:20:00.862Z,8.90
2018-10-06T05:22:29.295Z,9.00
2018-10-06T05:24:57.725Z,8.90
2018-10-06T05:27:26.214Z,8.90
2018-10-06T05:29:54.627Z,8.90
2018-10-06T05:32:23.044Z,8.90
2018-10-06T05:34:51.476Z,8.90
2018-10-06T05:37:20.219Z,8.90
2018-10-06T05:39:48.690Z,8.90
2018-10-06T05:42:17.437Z,8.90
2018-10-06T05:44:45.898Z,8.90
2018-10-06T05:47:14.343Z,8.90
2018-10-06T05:49:42.987Z,8.90
2018-10-06T05:52:11.432Z,8.90
2018-10-06T05:54:40.221Z,8.90
2018-10-06T05:57:08.882Z,8.90
2018-10-06T05:59:38.614Z,8.90
2018-10-06T06:02:07.122Z,8.90
2018-10-06T06:04:35.546Z,8.90
2018-10-06T06:07:04.194Z,8.90
2018-10-06T06:09:32.649Z,8.90
2018-10-06T06:12:01.099Z,8.90
2018-10-06T06:14:29.553Z,9.00
2018-10-06T06:16:58.025Z,9.00
2018-10-06T06:19:26.509Z,9.00
2018-10-06T06:21:55.202Z,9.00
2018-10-06T06:24:24.131Z,9.00
2018-10-06T06:26:52.625Z,9.00
2018-10-06T06:29:21.093Z,9.10
2018-10-06T06:31:49.604Z,9.10
2018-10-06T06:34:18.111Z,9.10
2018-10-06T06:36:46.564Z,9.10
2018-10-06T06:39:15.412Z,9.20
2018-10-06T06:41:43.874Z,9.30
2018-10-06T06:44:12.408Z,9.30
2018-10-06T06:46:40.805Z,9.30
2018-10-06T06:49:09.301Z,9.30
2018-10-06T06:51:38.071Z,9.40
2018-10-06T06:54:07.329Z,9.40
2018-10-06T06:56:35.772Z,9.40
2018-10-06T06:59:04.962Z,9.50
2018-10-06T07:01:33.469Z,9.50
2018-10-06T07:04:02.306Z,9.50
2018-10-06T07:06:30.745Z,9.60
2018-10-06T07:08:59.203Z,9.60
2018-10-06T07:11:27.655Z,9.70
2018-10-06T07:13:56.101Z,9.70
2018-10-06T07:16:24.579Z,9.80
2018-10-06T07:18:53.031Z,9.80
2018-10-06T07:21:21.468Z,9.90
2018-10-06T07:23:49.948Z,9.90
2018-10-06T07:26:18.437Z,10.00
2018-10-06T07:28:46.955Z,10.10
2018-10-06T07:31:15.726Z,10.10
2018-10-06T07:33:44.219Z,10.20
2018-10-06T07:36:12.696Z,10.30
2018-10-06T07:38:41.205Z,10.30
2018-10-06T07:41:09.753Z,10.40
2018-10-06T07:43:38.187Z,10.50
2018-10-06T07:46:07.057Z,10.60
2018-10-06T07:48:35.531Z,10.70
2018-10-06T07:51:04.016Z,10.70
2018-10-06T07:53:32.486Z,10.90
2018-10-06T07:56:00.922Z,11.00
2018-10-06T07:58:29.382Z,11.10
2018-10-06T08:00:57.823Z,11.20
2018-10-06T08:03:26.270Z,11.30
2018-10-06T08:05:54.721Z,11.40
2018-10-06T08:08:23.213Z,11.50
2018-10-06T08:10:51.753Z,11.60
2018-10-06T08:13:23.047Z,11.80
2018-10-06T08:15:51.751Z,11.90
2018-10-06T08:18:20.714Z,12.00
2018-10-06T08:20:49.741Z,12.10
2018-10-06T08:23:18.242Z,12.20
2018-10-06T08:25:49.740Z,12.30
2018-10-06T08:28:18.667Z,12.40
2018-10-06T08:30:47.386Z,12.50
2018-10-06T08:33:16.657Z,12.60
2018-10-06T08:35:45.160Z,12.70
2018-10-06T08:38:13.629Z,12.80
2018-10-06T08:40:42.078Z,12.90
2018-10-06T08:43:10.701Z,13.10
2018-10-06T08:45:39.297Z,13.20
2018-10-06T08:48:07.792Z,13.30
2018-10-06T08:50:36.261Z,13.40
2018-10-06T08:53:04.750Z,13.50
2018-10-06T08:55:33.399Z,13.60
2018-10-06T08:58:02.114Z,13.70
2018-10-06T09:00:30.664Z,13.80
2018-10-06T09:02:59.151Z,14.00
2018-10-06T09:05:28.253Z,14.10
2018-10-06T09:07:56.745Z,14.20
2018-10-06T09:10:25.249Z,14.30
2018-10-06T09:12:53.703Z,14.40
2018-10-06T09:15:22.282Z,14.60
2018-10-06T09:17:50.880Z,14.70
2018-10-06T09:20:19.461Z,14.80
2018-10-06T09:22:47.960Z,15.00
2018-10-06T09:25:16.558Z,15.10
2018-10-06T09:27:45.013Z,15.20
2018-10-06T09:30:13.492Z,15.30
2018-10-06T09:32:41.953Z,15.50
2018-10-06T09:35:10.407Z,15.70
2018-10-06T09:37:39.444Z,15.80
2018-10-06T09:40:08.816Z,16.00
2018-10-06T09:42:37.521Z,16.10
2018-10-06T09:45:05.811Z,16.20
2018-10-06T09:47:34.256Z,16.40
2018-10-06T09:50:02.776Z,16.60
2018-10-06T09:52:31.646Z,16.70
2018-10-06T09:55:00.092Z,16.80
2018-10-06T09:57:28.599Z,16.90
2018-10-06T09:59:57.026Z,17.10
2018-10-06T10:02:30.746Z,17.20
2018-10-06T10:05:04.607Z,17.30
2018-10-06T10:07:34.802Z,17.50
2018-10-06T10:10:03.889Z,17.60
2018-10-06T10:12:32.354Z,17.80
2018-10-06T10:15:00.762Z,17.90
2018-10-06T10:17:29.357Z,18.00
2018-10-06T10:19:57.684Z,18.10
2018-10-06T10:22:26.280Z,18.30
2018-10-06T10:24:54.665Z,18.40
2018-10-06T10:27:23.153Z,18.50
2018-10-06T10:29:51.652Z,18.60
2018-10-06T10:32:20.082Z,18.70
2018-10-06T10:34:48.955Z,18.80
2018-10-06T10:37:17.451Z,18.90
2018-10-06T10:39:45.938Z,19.00
2018-10-06T10:42:14.341Z,19.20
2018-10-06T10:44:42.814Z,19.30
2018-10-06T10:47:11.245Z,19.40
2018-10-06T10:49:39.772Z,19.50
2018-10-06T10:52:08.145Z,19.70
2018-10-06T10:54:36.631Z,19.80
2018-10-06T10:57:05.046Z,19.90
2018-10-06T10:59:33.591Z,20.00
2018-10-06T11:02:01.982Z,20.00
2018-10-06T11:04:30.409Z,20.10
2018-10-06T11:06:58.873Z,20.20
2018-10-06T11:09:27.361Z,20.40
2018-10-06T11:11:55.821Z,20.50
2018-10-06T11:14:24.301Z,20.60
2018-10-06T11:20:02.404Z,20.80
2018-10-06T11:22:30.899Z,20.90
2018-10-06T11:24:59.485Z,21.00
2018-10-06T11:27:28.197Z,21.10
2018-10-06T11:29:56.826Z,21.10
2018-10-06T11:32:25.678Z,21.20
2018-10-06T11:34:55.029Z,21.30
2018-10-06T11:37:23.841Z,21.30
2018-10-06T11:39:52.316Z,21.40
2018-10-06T11:42:20.912Z,21.50
2018-10-06T11:44:49.840Z,21.50
2018-10-06T11:47:18.584Z,21.60
2018-10-06T11:49:47.121Z,21.70
2018-10-06T11:52:15.949Z,21.70
2018-10-06T11:54:44.595Z,21.70
2018-10-06T11:57:13.101Z,21.80
2018-10-06T11:59:41.966Z,21.80
2018-10-06T12:02:10.525Z,21.90
2018-10-06T12:04:39.005Z,21.90
2018-10-06T12:07:08.654Z,21.90
2018-10-06T12:09:37.207Z,22.00
2018-10-06T12:12:06.270Z,22.10
2018-10-06T12:14:34.731Z,22.20
2018-10-06T12:17:03.186Z,22.20
2018-10-06T12:19:31.658Z,22.30
2018-10-06T12:22:00.113Z,22.30
2018-10-06T12:24:29.019Z,22.40
2018-10-06T12:26:58.164Z,22.40
2018-10-06T12:29:27.641Z,22.50
2018-10-06T12:31:56.206Z,22.50
2018-10-06T12:34:24.805Z,22.50
2018-10-06T12:36:53.304Z,22.50
2018-10-06T12:39:21.748Z,22.60
2018-10-06T12:41:50.668Z,22.60
2018-10-06T12:44:19.357Z,22.60
2018-10-06T12:46:47.829Z,22.60
2018-10-06T12:49:17.051Z,22.60
2018-10-06T12:51:45.749Z,22.70
2018-10-06T12:54:14.785Z,22.70
2018-10-06T12:56:43.262Z,22.80
2018-10-06T12:59:11.932Z,22.80
2018-10-06T13:01:41.053Z,22.80
2018-10-06T13:04:09.904Z,22.80
2018-10-06T13:06:38.413Z,22.80
2018-10-06T13:09:08.959Z,22.80
2018-10-06T13:11:37.513Z,22.90
2018-10-06T13:14:06.238Z,22.90
2018-10-06T13:16:34.826Z,22.90
2018-10-06T13:19:03.302Z,22.90
2018-10-06T13:21:32.023Z,22.90
2018-10-06T13:24:01.207Z,22.90
2018-10-06T13:26:29.777Z,23.00
2018-10-06T13:28:58.319Z,23.00
2018-10-06T13:31:26.751Z,23.10
2018-10-06T13:33:55.549Z,23.10
2018-10-06T13:36:24.244Z,23.20
2018-10-06T13:38:52.701Z,23.20
2018-10-06T13:41:21.165Z,23.20
2018-10-06T13:43:49.613Z,23.20
2018-10-06T13:46:18.404Z,23.30
2018-10-06T13:48:46.828Z,23.30
2018-10-06T13:51:15.298Z,23.30
2018-10-06T13:53:44.203Z,23.30
2018-10-06T13:56:12.654Z,23.30
2018-10-06T13:58:41.127Z,23.30
2018-10-06T14:01:09.725Z,23.30
2018-10-06T14:03:38.177Z,23.30
2018-10-06T14:06:06.747Z,23.40
2018-10-06T14:08:35.178Z,23.40
2018-10-06T14:11:03.593Z,23.40
2018-10-06T14:13:32.162Z,23.40
2018-10-06T14:16:00.598Z,23.40
2018-10-06T14:18:29.040Z,23.40
2018-10-06T14:20:57.501Z,23.40
2018-10-06T14:23:25.957Z,23.50
2018-10-06T14:25:54.446Z,23.50
2018-10-06T14:28:22.902Z,23.40
2018-10-06T14:30:51.337Z,23.40
2018-10-06T14:33:19.776Z,23.40
2018-10-06T14:35:48.217Z,23.40
2018-10-06T14:38:17.211Z,23.40
2018-10-06T14:40:45.721Z,23.40
2018-10-06T14:43:14.152Z,23.40
2018-10-06T14:45:42.644Z,23.40
2018-10-06T14:48:11.084Z,23.50
2018-10-06T14:50:39.997Z,23.50
2018-10-06T14:53:09.096Z,23.50
2018-10-06T14:55:38.331Z,23.50
2018-10-06T14:58:07.257Z,23.50
2018-10-06T15:00:36.391Z,23.50
2018-10-06T15:03:05.320Z,23.40
2018-10-06T15:05:34.318Z,23.40
2018-10-06T15:08:03.795Z,23.30
2018-10-06T15:10:32.725Z,23.30
2018-10-06T15:13:01.850Z,23.20
2018-10-06T15:15:30.891Z,23.20
2018-10-06T15:17:59.929Z,23.20
2018-10-06T15:20:29.074Z,23.10
2018-10-06T15:22:57.909Z,23.10
2018-10-06T15:30:19.657Z,23.00
2018-10-06T15:32:48.556Z,22.90
2018-10-06T15:35:17.233Z,22.90
2018-10-06T15:37:46.338Z,22.80
2018-10-06T15:40:15.314Z,22.70
2018-10-06T15:42:46.047Z,22.60
2018-10-06T15:45:14.512Z,22.60
2018-10-06T15:47:43.547Z,22.50
2018-10-06T15:50:15.931Z,22.50
2018-10-06T15:54:09.028Z,22.50
2018-10-06T15:56:37.743Z,22.40
2018-10-06T15:59:09.673Z,22.40
2018-10-06T16:01:38.589Z,22.30
2018-10-06T16:04:11.992Z,22.30
2018-10-06T16:06:41.375Z,22.20
2018-10-06T16:09:15.965Z,22.20
2018-10-06T16:11:45.255Z,22.10
2018-10-06T16:14:14.397Z,22.10
2018-10-06T16:16:43.541Z,22.00
2018-10-06T16:19:13.241Z,21.90
2018-10-06T16:21:42.981Z,21.90
2018-10-06T16:24:12.173Z,21.80
2018-10-06T16:26:41.745Z,21.80
2018-10-06T16:29:20.577Z,21.70
2018-10-06T16:31:49.950Z,21.70
2018-10-06T16:34:18.885Z,21.60
2018-10-06T16:36:48.332Z,21.50
2018-10-06T16:39:17.429Z,21.50
2018-10-06T16:41:46.576Z,21.40
2018-10-06T16:44:15.646Z,21.30
2018-10-06T16:46:45.246Z,21.20
2018-10-06T16:49:14.828Z,21.10
2018-10-06T16:51:44.276Z,21.10
2018-10-06T16:54:14.820Z,20.90
2018-10-06T16:56:45.164Z,20.80
2018-10-06T17:02:19.700Z,20.60
2018-10-06T17:04:49.485Z,20.60
2018-10-06T17:07:19.633Z,20.50
2018-10-06T17:09:48.408Z,20.40
2018-10-06T17:12:19.265Z,20.30
2018-10-06T17:14:48.617Z,20.20
2018-10-06T17:17:18.751Z,20.10
2018-10-06T17:19:48.026Z,20.00
2018-10-06T17:22:17.193Z,19.90
2018-10-06T17:24:46.428Z,19.80
2018-10-06T17:27:16.115Z,19.70
2018-10-06T17:29:45.325Z,19.50
2018-10-06T17:32:15.096Z,19.50
2018-10-06T17:34:44.829Z,19.40
2018-10-06T17:37:14.752Z,19.40
2018-10-06T17:39:43.878Z,19.30
2018-10-06T17:42:13.365Z,19.20
2018-10-06T17:44:42.849Z,19.10
2018-10-06T17:47:12.528Z,19.10
2018-10-06T17:49:41.608Z,19.00
2018-10-06T17:52:11.262Z,18.90
2018-10-06T17:54:40.537Z,18.80
2018-10-06T17:57:09.933Z,18.70
2018-10-06T17:59:38.453Z,18.60
2018-10-06T18:02:07.309Z,18.60
2018-10-06T18:04:36.495Z,18.50
2018-10-06T18:07:05.196Z,18.40
2018-10-06T18:09:34.447Z,18.30
2018-10-06T18:12:03.183Z,18.30
2018-10-06T18:14:32.560Z,18.20
2018-10-06T18:17:01.280Z,18.00
2018-10-06T18:19:30.089Z,18.00
2018-10-06T18:21:59.047Z,17.80
2018-10-06T18:24:27.878Z,17.80
2018-10-06T18:26:56.371Z,17.70
2018-10-06T18:29:24.878Z,17.70
2018-10-06T18:31:53.450Z,17.60
2018-10-06T18:34:22.225Z,17.60
2018-10-06T18:36:50.776Z,17.50
2018-10-06T18:39:19.585Z,17.50
2018-10-06T18:41:48.155Z,17.40
2018-10-06T18:44:16.691Z,17.40
2018-10-06T18:46:45.194Z,17.30
2018-10-06T18:49:13.842Z,17.30
2018-10-06T18:51:42.320Z,17.20
2018-10-06T18:54:11.188Z,17.20
2018-10-06T18:56:39.940Z,17.10
2018-10-06T18:59:10.240Z,17.10
2018-10-06T19:01:39.076Z,17.00
2018-10-06T19:04:08.473Z,17.00
2018-10-06T19:06:37.344Z,16.90
2018-10-06T19:09:08.180Z,16.90
2018-10-06T19:11:37.631Z,16.80
2018-10-06T19:14:23.842Z,16.80
2018-10-06T19:16:53.883Z,16.70
2018-10-06T19:19:23.315Z,16.70
2018-10-06T19:21:52.572Z,16.60
2018-10-06T19:24:21.248Z,16.60
2018-10-06T19:26:50.163Z,16.50
2018-10-06T19:29:18.895Z,16.50
2018-10-06T19:31:47.481Z,16.50
2018-10-06T19:34:16.107Z,16.40
2018-10-06T19:36:44.774Z,16.40
2018-10-06T19:39:13.372Z,16.40
2018-10-06T19:41:41.920Z,16.30
2018-10-06T19:44:10.494Z,16.30
2018-10-06T19:46:39.055Z,16.30
2018-10-06T19:49:07.582Z,16.30
2018-10-06T19:51:36.181Z,16.20
2018-10-06T19:54:04.794Z,16.20
2018-10-06T19:56:33.514Z,16.20
2018-10-06T19:59:02.190Z,16.20
2018-10-06T20:01:30.894Z,16.20
2018-10-06T20:03:59.504Z,16.20
2018-10-06T20:06:28.113Z,16.20
2018-10-06T20:08:56.601Z,16.20
2018-10-06T20:11:25.845Z,16.30
2018-10-06T20:13:54.431Z,16.30
2018-10-06T20:16:23.132Z,16.30
2018-10-06T20:18:51.740Z,16.30
2018-10-06T20:21:20.460Z,16.30
2018-10-06T20:23:50.716Z,16.30
2018-10-06T20:26:19.956Z,16.30
2018-10-06T20:28:49.061Z,16.30
2018-10-06T20:31:17.592Z,16.30
2018-10-06T20:33:46.145Z,16.30
2018-10-06T20:36:14.773Z,16.40
2018-10-06T20:38:43.334Z,16.30
2018-10-06T20:41:11.898Z,16.40
2018-10-06T20:43:40.852Z,16.40
2018-10-06T20:46:09.869Z,16.40
2018-10-06T20:48:38.481Z,16.40
2018-10-06T20:51:08.139Z,16.40
2018-10-06T20:53:37.231Z,16.40
2018-10-06T20:56:06.216Z,16.40
2018-10-06T20:58:34.770Z,16.40
2018-10-06T21:01:04.031Z,16.40
2018-10-06T21:03:32.805Z,16.40
2018-10-06T21:06:01.331Z,16.40
2018-10-06T21:08:29.868Z,16.40
2018-10-06T21:10:59.823Z,16.30
2018-10-06T21:13:30.687Z,16.30
2018-10-06T21:15:59.307Z,16.30
2018-10-06T21:18:28.755Z,16.30
2018-10-06T21:20:57.876Z,16.20
2018-10-06T21:23:26.669Z,16.20
2018-10-06T21:25:55.276Z,16.20
2018-10-06T21:28:24.058Z,16.20
2018-10-06T21:30:53.031Z,16.20
2018-10-06T21:33:22.099Z,16.20
2018-10-06T21:35:51.616Z,16.10
2018-10-06T21:38:20.445Z,16.20
2018-10-06T21:40:49.577Z,16.10
2018-10-06T21:43:18.103Z,16.10
2018-10-06T21:45:46.717Z,16.10
2018-10-06T21:48:15.326Z,16.10
2018-10-06T21:50:44.861Z,16.10
2018-10-06T21:53:13.410Z,16.10
2018-10-06T21:55:42.078Z,16.10
2018-10-06T21:58:10.627Z,16.10
2018-10-06T22:00:39.196Z,16.10
2018-10-06T22:03:08.853Z,16.10
2018-10-06T22:05:37.583Z,16.00
2018-10-06T22:08:07.081Z,16.00
2018-10-06T22:10:36.593Z,16.00
2018-10-06T22:13:05.441Z,15.90
2018-10-06T22:15:33.936Z,15.90
2018-10-06T22:18:02.599Z,15.90
2018-10-06T22:20:32.517Z,15.80
2018-10-06T22:23:00.966Z,15.80
2018-10-06T22:25:29.466Z,15.80
2018-10-06T22:27:57.945Z,15.80
2018-10-06T22:30:26.994Z,15.80
2018-10-06T22:32:55.454Z,15.70
2018-10-06T22:35:23.944Z,15.70
2018-10-06T22:37:52.597Z,15.70
2018-10-06T22:40:21.053Z,15.70
2018-10-06T22:46:00.849Z,15.60
2018-10-06T22:48:29.366Z,15.60
2018-10-06T22:50:57.837Z,15.50
2018-10-06T22:53:26.292Z,15.50
2018-10-06T22:55:54.718Z,15.50
2018-10-06T22:58:23.175Z,15.50
2018-10-06T23:00:51.623Z,15.40
2018-10-06T23:03:20.358Z,15.40
2018-10-06T23:05:48.794Z,15.40
2018-10-06T23:08:17.241Z,15.30
2018-10-06T23:10:45.694Z,15.30
2018-10-06T23:13:14.149Z,15.30
2018-10-06T23:15:42.665Z,15.30
2018-10-06T23:21:17.345Z,15.30
2018-10-06T23:23:46.753Z,15.30
2018-10-06T23:26:15.190Z,15.20
2018-10-06T23:28:43.661Z,15.20
2018-10-06T23:31:12.531Z,15.20
2018-10-06T23:33:42.842Z,15.20
2018-10-06T23:36:11.272Z,15.20
2018-10-06T23:38:40.053Z,15.20
2018-10-06T23:41:08.514Z,15.10
2018-10-06T23:43:36.957Z,15.10
2018-10-06T23:46:05.405Z,15.10
2018-10-06T23:48:33.857Z,15.00
2018-10-06T23:51:02.296Z,15.00
2018-10-06T23:53:30.738Z,15.00
2018-10-06T23:55:59.156Z,15.00
2018-10-06T23:58:27.603Z,15.00
